| time (UTC) | temp C | wind direction | speed KPH | gust KPH | rain 1hr cm | rain 24hr cm | rain mn cm | humidity % | barometer mb |
| 20260510143109 | 12 | 190 | 12.9 | 29.0 | 0.00 | 0.00 | 0.00 | 83 | 1021.8 |
| 20260510141559 | 12 | 190 | 12.9 | 24.1 | 0.00 | 0.00 | 0.00 | 85 | 1021.6 |
| 20260510140051 | 13 | 190 | 16.1 | 27.4 | 0.00 | 0.00 | 0.00 | 83 | 1021.4 |
| 20260510134547 | 15 | 190 | 11.3 | 24.1 | 0.00 | 0.00 | 0.00 | 77 | 1020.7 |
| 20260510133042 | 15 | 190 | 8.0 | 19.3 | 0.00 | 0.00 | 0.00 | 77 | 1020.3 |
| 20260510131540 | 15 | 190 | 6.4 | 14.5 | 0.00 | 0.00 | 0.00 | 77 | 1019.8 |
| 20260510130036 | 15 | 190 | 4.8 | 17.7 | 0.00 | 0.00 | 0.00 | 79 | 1019.3 |
| 20260510124535 | 14 | 190 | 4.8 | 14.5 | 0.00 | 0.00 | 0.00 | 80 | 1019.0 |
| 20260510123029 | 14 | 190 | 8.0 | 14.5 | 0.00 | 0.00 | 0.00 | 80 | 1018.4 |
| 20260510121524 | 14 | 190 | 8.0 | 16.1 | 0.00 | 0.00 | 0.00 | 80 | 1017.5 |
| 20260510120023 | 14 | 190 | 4.8 | 16.1 | 0.00 | 0.00 | 0.00 | 80 | 1017.2 |
| 20260510114521 | 14 | 190 | 4.8 | 14.5 | 0.00 | 0.00 | 0.00 | 80 | 1016.7 |
| 20260510113017 | 15 | 190 | 8.0 | 17.7 | 0.00 | 0.00 | 0.00 | 80 | 1016.3 |
| 20260510111514 | 15 | 190 | 8.0 | 19.3 | 0.00 | 0.00 | 0.00 | 80 | 1016.4 |
| 20260510110011 | 15 | 190 | 6.4 | 17.7 | 0.00 | 0.00 | 0.00 | 78 | 1015.9 |
| 20260510104507 | 15 | 190 | 8.0 | 22.5 | 0.00 | 0.00 | 0.00 | 76 | 1016.1 |
| 20260510103002 | 17 | 190 | 9.7 | 20.9 | 0.00 | 0.00 | 0.00 | 73 | 1015.3 |
| 20260510101600 | 17 | 190 | 6.4 | 11.3 | 0.00 | 0.00 | 0.00 | 73 | 1016.7 |
| 20260510100115 | 17 | 190 | 3.2 | 8.0 | 0.00 | 0.00 | 0.00 | 72 | 1017.2 |
| 20260510094602 | 18 | 190 | 1.6 | 8.0 | 0.00 | 0.00 | 0.00 | 69 | 1016.8 |
| 20260510093057 | 18 | 190 | 0.0 | 14.5 | 0.00 | 0.00 | 0.00 | 69 | 1016.0 |
| 20260510091549 | 18 | 190 | 4.8 | 9.7 | 0.00 | 0.00 | 0.00 | 69 | 1014.7 |
| 20260510090053 | 18 | 190 | 0.0 | 8.0 | 0.00 | 0.00 | 0.00 | 69 | 1014.7 |
| 20260510084606 | 18 | 190 | 0.0 | 8.0 | 0.00 | 0.00 | 0.00 | 70 | 1014.0 |
| 20260510083041 | 18 | 190 | 3.2 | 12.9 | 0.00 | 0.00 | 0.00 | 71 | 1013.1 |
| 20260510081549 | 18 | 190 | 3.2 | 14.5 | 0.00 | 0.00 | 0.00 | 71 | 1012.5 |
| 20260510080039 | 18 | 190 | 0.0 | 9.7 | 0.00 | 0.00 | 0.00 | 70 | 1012.4 |
| 20260510074536 | 18 | 190 | 4.8 | 14.5 | 0.00 | 0.00 | 0.00 | 69 | 1012.8 |
| 20260510073032 | 19 | 190 | 4.8 | 17.7 | 0.00 | 0.00 | 0.00 | 68 | 1012.4 |
| 20260510071536 | 19 | 190 | 6.4 | 14.5 | 0.00 | 0.00 | 0.00 | 68 | 1012.2 |
| 20260510070036 | 20 | 190 | 3.2 | 11.3 | 0.00 | 0.00 | 0.00 | 67 | 1012.4 |
| 20260510064523 | 20 | 190 | 4.8 | 11.3 | 0.00 | 0.00 | 0.00 | 67 | 1012.9 |
| 20260510063020 | 21 | 190 | 3.2 | 6.4 | 0.00 | 0.00 | 0.00 | 66 | 1012.7 |
| 20260510061518 | 21 | 190 | 3.2 | 8.0 | 0.00 | 0.00 | 0.00 | 66 | 1012.4 |
| 20260510060015 | 21 | 190 | 0.0 | 4.8 | 0.00 | 0.00 | 0.00 | 64 | 1012.7 |
| 20260510054513 | 22 | 190 | 1.6 | 6.4 | 0.00 | 0.00 | 0.00 | 62 | 1012.3 |
| 20260510053009 | 22 | 190 | 0.0 | 0.0 | 0.00 | 0.00 | 0.00 | 61 | 1013.0 |
| 20260510051507 | 22 | 190 | 0.0 | 9.7 | 0.00 | 0.00 | 0.00 | 60 | 1013.2 |
| 20260510050005 | 22 | 190 | 1.6 | 6.4 | 0.00 | 0.00 | 0.00 | 60 | 1013.1 |
| 20260510044504 | 22 | 190 | 3.2 | 9.7 | 0.00 | 0.00 | 0.00 | 59 | 1012.6 |
| 20260510043004 | 23 | 190 | 3.2 | 6.4 | 0.00 | 0.00 | 0.00 | 58 | 1012.4 |
| 20260510041501 | 23 | 190 | 3.2 | 9.7 | 0.00 | 0.00 | 0.00 | 57 | 1011.5 |
| 20260510040104 | 23 | 190 | 3.2 | 12.9 | 0.00 | 0.00 | 0.00 | 56 | 1010.8 |
| 20260510034602 | 23 | 190 | 0.0 | 8.0 | 0.00 | 0.00 | 0.00 | 55 | 1010.4 |
| 20260510034501 | 23 | 190 | 0.0 | 8.0 | 0.00 | 0.00 | 0.00 | 54 | 1010.3 |
| 20260510033138 | 24 | 190 | 3.2 | 14.5 | 0.00 | 0.00 | 0.00 | 51 | 1010.2 |
| 20260510031620 | 24 | 190 | 1.6 | 8.0 | 0.00 | 0.00 | 0.00 | 39 | 1010.0 |
| 20260510024556 | 24 | 190 | 0.0 | 0.0 | 0.00 | 0.00 | 0.00 | 26 | 1009.0 |
| 20260510023055 | 25 | 190 | 0.0 | 1.6 | 0.00 | 0.00 | 0.00 | 25 | 1008.9 |
| 20260510021555 | 25 | 190 | 0.0 | 0.0 | 0.00 | 0.00 | 0.00 | 25 | 1008.5 |
| 20260510020054 | 25 | 190 | 0.0 | 0.0 | 0.00 | 0.00 | 0.00 | 24 | 1008.5 |
| 20260510014555 | 26 | 190 | 0.0 | 0.0 | 0.00 | 0.00 | 0.00 | 24 | 1008.2 |
| 20260510013053 | 27 | 190 | 0.0 | 0.0 | 0.00 | 0.00 | 0.00 | 23 | 1008.0 |
| 20260510011558 | 28 | 190 | 0.0 | 3.2 | 0.00 | 0.00 | 0.00 | 21 | 1007.8 |
| 20260510010058 | 30 | 190 | 6.4 | 12.9 | 0.00 | 0.00 | 0.00 | 19 | 1007.6 |
| 20260510004552 | 31 | 190 | 0.0 | 9.7 | 0.00 | 0.00 | 0.00 | 18 | 1007.5 |
| 20260510003051 | 32 | 190 | 3.2 | 8.0 | 0.00 | 0.00 | 0.00 | 15 | 1007.6 |
| 20260510001550 | 32 | 190 | 0.0 | 8.0 | 0.00 | 0.00 | 0.00 | 15 | 1007.7 |
| 20260510000103 | 32 | 190 | 1.6 | 12.9 | 0.00 | 0.00 | 0.00 | 14 | 1007.7 |
| 20260509234557 | 32 | 190 | 4.8 | 9.7 | 0.00 | 0.00 | 0.00 | 15 | 1007.9 |
| 20260509233049 | 32 | 190 | 6.4 | 14.5 | 0.00 | 0.00 | 0.00 | 16 | 1007.9 |
| 20260509231548 | 32 | 190 | 6.4 | 14.5 | 0.00 | 0.00 | 0.00 | 13 | 1008.0 |
| 20260509230045 | 32 | 190 | 9.7 | 16.1 | 0.00 | 0.00 | 0.00 | 14 | 1007.9 |
| 20260509224544 | 32 | 190 | 3.2 | 9.7 | 0.00 | 0.00 | 0.00 | 17 | 1007.8 |
| 20260509223044 | 32 | 190 | 4.8 | 8.0 | 0.00 | 0.00 | 0.00 | 17 | 1007.9 |
| 20260509221545 | 32 | 190 | 8.0 | 16.1 | 0.00 | 0.00 | 0.00 | 17 | 1007.9 |
| 20260509220040 | 32 | 190 | 0.0 | 6.4 | 0.00 | 0.00 | 0.00 | 17 | 1008.1 |
| 20260509214538 | 31 | 190 | 0.0 | 14.5 | 0.00 | 0.00 | 0.00 | 18 | 1008.2 |
| 20260509213040 | 32 | 190 | 0.0 | 12.9 | 0.00 | 0.00 | 0.00 | 17 | 1008.3 |
| 20260509211538 | 31 | 190 | 8.0 | 14.5 | 0.00 | 0.00 | 0.00 | 17 | 1008.6 |
| 20260509210040 | 32 | 190 | 6.4 | 17.7 | 0.00 | 0.00 | 0.00 | 16 | 1009.0 |
| 20260509204535 | 32 | 190 | 0.0 | 12.9 | 0.00 | 0.00 | 0.00 | 18 | 1009.2 |
| 20260509203029 | 32 | 190 | 9.7 | 17.7 | 0.00 | 0.00 | 0.00 | 19 | 1009.5 |
| 20260509201529 | 32 | 190 | 9.7 | 19.3 | 0.00 | 0.00 | 0.00 | 20 | 1009.6 |
| 20260509200023 | 31 | 190 | 4.8 | 17.7 | 0.00 | 0.00 | 0.00 | 21 | 1009.9 |
| 20260509194523 | 31 | 190 | 8.0 | 17.7 | 0.00 | 0.00 | 0.00 | 21 | 1010.1 |
| 20260509193016 | 31 | 190 | 8.0 | 17.7 | 0.00 | 0.00 | 0.00 | 23 | 1010.4 |
| 20260509191519 | 31 | 190 | 6.4 | 20.9 | 0.00 | 0.00 | 0.00 | 23 | 1010.6 |
| 20260509190013 | 30 | 190 | 0.0 | 12.9 | 0.00 | 0.00 | 0.00 | 24 | 1010.8 |
| 20260509184512 | 30 | 190 | 6.4 | 17.7 | 0.00 | 0.00 | 0.00 | 23 | 1011.3 |
| 20260509183010 | 30 | 190 | 9.7 | 17.7 | 0.00 | 0.00 | 0.00 | 22 | 1011.5 |
| 20260509181503 | 30 | 190 | 11.3 | 19.3 | 0.00 | 0.00 | 0.00 | 24 | 1011.8 |
| 20260509174559 | 29 | 190 | 11.3 | 25.7 | 0.00 | 0.00 | 0.00 | 25 | 1012.3 |
| 20260509173103 | 29 | 190 | 16.1 | 22.5 | 0.00 | 0.00 | 0.00 | 24 | 1012.7 |
| 20260509171552 | 29 | 190 | 14.5 | 33.8 | 0.00 | 0.00 | 0.00 | 23 | 1012.9 |
| 20260509170049 | 29 | 190 | 16.1 | 30.6 | 0.00 | 0.00 | 0.00 | 22 | 1013.1 |
| 20260509164545 | 28 | 190 | 14.5 | 30.6 | 0.00 | 0.00 | 0.00 | 21 | 1013.3 |
| 20260509163039 | 27 | 190 | 11.3 | 25.7 | 0.00 | 0.00 | 0.00 | 25 | 1013.5 |
| 20260509161535 | 24 | 190 | 6.4 | 14.5 | 0.00 | 0.00 | 0.00 | 38 | 1013.9 |
| 20260509160036 | 23 | 190 | 0.0 | 8.0 | 0.00 | 0.00 | 0.00 | 44 | 1013.9 |
| 20260509154529 | 22 | 190 | 0.0 | 3.2 | 0.00 | 0.00 | 0.00 | 47 | 1014.1 |
| 20260509153038 | 20 | 190 | 1.6 | 8.0 | 0.00 | 0.00 | 0.00 | 50 | 1014.5 |
| 20260509151522 | 20 | 190 | 4.8 | 8.0 | 0.00 | 0.00 | 0.00 | 50 | 1014.7 |
| 20260509150029 | 20 | 190 | 0.0 | 6.4 | 0.00 | 0.00 | 0.00 | 50 | 1014.7 |
| 20260509144526 | 18 | 190 | 1.6 | 8.0 | 0.00 | 0.00 | 0.00 | 52 | 1015.1 |